Time;durP1;ratioP1;P1;durP2;ratioP2;P2;SDS_P1;SDS_P2;PMS_P1;PMS_P2;Temp;Humidity;BMP_temperature;BMP_pressure;BME280_temperature;BME280_humidity;BME280_pressure;Samples;Min_cycle;Max_cycle;Signal;HPM_P1;HPM_P2
2022/05/19 00:02:25;;;;;;;0.90;0.77;;;21.00;99.90;21.20;101502.00;;;;5051205;28;20541;-68
2022/05/19 00:04:54;;;;;;;1.30;1.20;;;21.00;99.90;21.00;101495.00;;;;5050922;28;20534;-68
2022/05/19 00:07:21;;;;;;;0.30;0.30;;;21.00;99.90;21.40;101496.00;;;;5036206;28;20183;-68
2022/05/19 00:09:47;;;;;;;0.68;0.68;;;21.10;99.90;21.40;101486.00;;;;5035645;28;20570;-68
2022/05/19 00:12:19;;;;;;;0.65;0.60;;;21.10;99.90;21.40;101479.00;;;;5035691;28;20215;-68
2022/05/19 00:14:45;;;;;;;0.30;0.30;;;21.20;99.90;21.20;101477.00;;;;5035212;28;20178;-68
2022/05/19 00:17:12;;;;;;;1.25;1.15;;;21.10;99.90;20.90;101439.00;;;;5051258;28;20277;-68
2022/05/19 00:19:38;;;;;;;2.72;2.53;;;21.10;99.90;21.10;101469.00;;;;5050980;28;20179;-68
2022/05/19 00:22:05;;;;;;;0.75;0.70;;;21.00;99.90;21.40;101466.00;;;;5035392;28;20273;-68
2022/05/19 00:24:31;;;;;;;1.15;1.15;;;21.10;99.90;21.50;101464.00;;;;5034091;28;20183;-68
2022/05/19 00:26:58;;;;;;;2.20;2.10;;;21.30;99.90;21.40;101470.00;;;;5034038;28;20185;-68
2022/05/19 00:29:24;;;;;;;1.95;1.85;;;21.30;99.90;21.20;101461.00;;;;5034188;28;20270;-68
2022/05/19 00:31:50;;;;;;;1.65;1.55;;;21.30;99.90;21.30;101432.00;;;;5035136;28;20241;-68
2022/05/19 00:34:16;;;;;;;1.42;1.33;;;21.20;99.90;21.30;101438.00;;;;5035449;28;20211;-68
2022/05/19 00:36:42;;;;;;;1.60;1.50;;;21.20;99.90;21.20;101450.00;;;;5050585;28;20179;-68
2022/05/19 00:39:10;;;;;;;4.40;1.63;;;21.10;99.90;21.20;101444.00;;;;5035283;28;20175;-68
2022/05/19 00:41:45;;;;;;;4.75;4.45;;;21.20;99.90;21.20;101436.00;;;;5034860;28;20270;-68
2022/05/19 00:44:12;;;;;;;4.28;2.50;;;21.20;99.90;21.50;101428.00;;;;5035118;28;20190;-68
2022/05/19 00:46:50;;;;;;;0.60;0.60;;;21.30;99.90;21.00;101415.00;;;;5050562;28;20719;-68
2022/05/19 00:49:27;;;;;;;1.23;1.23;;;21.10;99.90;21.10;101392.00;;;;5033780;28;20175;-68
2022/05/19 00:51:58;;;;;;;2.53;2.33;;;21.10;99.90;21.40;101421.00;;;;5050011;28;20662;-68
2022/05/19 00:54:31;;;;;;;3.28;2.30;;;21.20;99.90;21.20;101420.00;;;;5049456;28;20233;-68
2022/05/19 00:57:11;;;;;;;2.60;2.40;;;21.10;99.90;21.30;101392.00;;;;5050169;28;20530;-68
2022/05/19 00:59:53;;;;;;;2.60;2.47;;;21.20;99.90;21.00;101399.00;;;;5050267;28;20175;-68
2022/05/19 01:02:26;;;;;;;2.50;2.30;;;21.10;99.90;20.80;101407.00;;;;5049788;28;20266;-68
2022/05/19 01:05:09;;;;;;;0.68;0.68;;;21.00;99.90;21.20;101419.00;;;;5033537;28;20175;-68
2022/05/19 01:07:46;;;;;;;0.63;0.63;;;21.10;99.90;21.20;101394.00;;;;5050094;28;20603;-68
2022/05/19 01:10:13;;;;;;;0.40;0.40;;;21.10;99.90;21.60;101389.00;;;;5034734;28;20186;-68
2022/05/19 01:12:41;;;;;;;1.95;1.85;;;21.30;99.90;21.40;101410.00;;;;5032739;28;20229;-68
2022/05/19 01:15:07;;;;;;;0.47;0.47;;;21.30;99.90;21.30;101471.00;;;;5049829;28;20179;-68
2022/05/19 01:17:34;;;;;;;0.93;0.90;;;21.20;99.90;21.10;101451.00;;;;5049985;28;20178;-68
2022/05/19 01:20:16;;;;;;;0.30;0.30;;;21.20;99.90;21.30;101477.00;;;;5049931;28;20178;-68
2022/05/19 01:22:56;;;;;;;0.82;0.82;;;21.20;99.90;21.30;101524.00;;;;5049707;28;20669;-68
2022/05/19 01:25:59;;;;;;;5.50;5.03;;;21.20;99.90;21.70;101547.00;;;;5049652;28;20254;-68
2022/05/19 01:28:26;;;;;;;0.75;0.63;;;21.40;99.90;21.80;101548.00;;;;5049557;28;20202;-68
2022/05/19 01:30:52;;;;;;;7.78;6.75;;;21.50;99.90;21.20;101570.00;;;;5049675;28;20190;-68
2022/05/19 01:33:17;;;;;;;3.20;2.92;;;21.40;99.90;21.00;101588.00;;;;5034147;28;20170;-68
2022/05/19 01:35:43;;;;;;;0.80;0.80;;;21.10;99.90;21.30;101557.00;;;;5049621;28;20175;-68
2022/05/19 01:38:18;;;;;;;2.83;2.13;;;21.10;99.90;20.50;101561.00;;;;5034059;28;20178;-67
2022/05/19 01:41:08;;;;;;;0.60;0.60;;;20.70;99.90;20.50;101618.00;;;;5049600;28;20268;-67
2022/05/19 01:43:57;;;;;;;0.77;0.77;;;20.40;99.90;20.50;101600.00;;;;5033709;28;20201;-67
2022/05/19 01:46:35;;;;;;;0.70;0.70;;;20.30;99.90;20.70;101608.00;;;;5049158;28;20315;-67
2022/05/19 01:49:16;;;;;;;2.43;1.77;;;20.30;99.90;20.60;101582.00;;;;5032979;28;20185;-67
2022/05/19 01:52:08;;;;;;;3.23;2.97;;;20.30;99.90;20.20;101534.00;;;;5049285;28;20674;-68
2022/05/19 01:54:46;;;;;;;1.60;1.60;;;20.10;99.90;20.10;101556.00;;;;5048957;28;20210;-68
2022/05/19 01:57:36;;;;;;;0.90;0.90;;;20.00;99.90;20.10;101592.00;;;;5034101;28;20184;-68
2022/05/19 02:00:23;;;;;;;0.63;0.63;;;19.90;99.90;20.40;101603.00;;;;5049248;28;20589;-68
2022/05/19 02:03:16;;;;;;;0.53;0.53;;;19.90;99.90;20.00;101620.00;;;;5048960;28;20665;-68
2022/05/19 02:06:11;;;;;;;0.60;0.60;;;19.90;99.90;20.10;101635.00;;;;5048968;28;20279;-68
2022/05/19 02:08:54;;;;;;;1.85;1.75;;;19.90;99.90;19.90;101653.00;;;;5031026;28;20665;-68
2022/05/19 02:11:33;;;;;;;4.25;3.22;;;19.90;99.90;19.70;101618.00;;;;5048757;28;20292;-68
2022/05/19 02:14:22;;;;;;;2.05;1.25;;;19.80;99.90;20.10;101642.00;;;;5048608;28;20182;-68
2022/05/19 02:16:49;;;;;;;1.10;0.80;;;19.80;99.90;19.90;101626.00;;;;5049147;28;20268;-68
2022/05/19 02:19:22;;;;;;;1.25;1.25;;;19.90;99.90;20.10;101605.00;;;;5049054;28;20170;-68
2022/05/19 02:21:48;;;;;;;1.27;1.27;;;19.90;99.90;20.30;101641.00;;;;5048835;28;20273;-68
2022/05/19 02:24:20;;;;;;;0.93;0.93;;;20.10;99.90;20.20;101655.00;;;;5038872;28;20170;-68
2022/05/19 02:26:46;;;;;;;0.60;0.60;;;20.00;99.90;20.00;101656.00;;;;5052088;28;20583;-67
2022/05/19 02:29:22;;;;;;;2.27;2.13;;;20.00;99.90;20.00;101640.00;;;;5053373;28;20174;-67
2022/05/19 02:31:49;;;;;;;0.60;0.60;;;19.90;99.90;19.70;101647.00;;;;5068341;28;20211;-67
2022/05/19 02:34:14;;;;;;;0.90;0.90;;;19.80;99.90;19.80;101664.00;;;;5068302;28;20175;-67
2022/05/19 02:36:41;;;;;;;0.65;0.65;;;19.70;99.90;20.10;101650.00;;;;5068915;28;20574;-67
2022/05/19 02:39:08;;;;;;;0.80;0.80;;;19.80;99.90;19.80;101604.00;;;;5068657;28;20172;-67
2022/05/19 02:41:34;;;;;;;1.00;1.00;;;19.70;99.90;19.90;101565.00;;;;5069017;28;20547;-67
2022/05/19 02:44:00;;;;;;;3.40;3.30;;;19.60;99.90;19.80;101574.00;;;;5068261;28;20184;-67
2022/05/19 02:46:26;;;;;;;2.87;2.77;;;19.50;99.90;19.30;101559.00;;;;5053384;28;20233;-67
2022/05/19 02:48:52;;;;;;;2.90;2.80;;;19.30;99.90;18.90;101593.00;;;;5051790;28;20190;-67
2022/05/19 02:51:18;;;;;;;2.60;2.50;;;19.00;99.90;18.80;101561.00;;;;5068660;28;20210;-67
2022/05/19 02:53:44;;;;;;;3.63;3.43;;;18.80;99.90;19.00;101530.00;;;;5068258;28;20526;-67
2022/05/19 02:56:10;;;;;;;5.03;3.00;;;18.80;99.90;18.60;101526.00;;;;5068774;28;20238;-67
2022/05/19 02:58:35;;;;;;;2.00;2.00;;;18.60;99.90;18.40;101470.00;;;;5052742;28;20249;-68
2022/05/19 03:01:01;;;;;;;2.03;2.00;;;18.40;99.90;18.40;101496.00;;;;5052956;28;20637;-68
2022/05/19 03:03:27;;;;;;;1.67;1.67;;;18.30;99.90;18.50;101443.00;;;;5068492;28;20186;-68
2022/05/19 03:05:53;;;;;;;1.20;1.20;;;18.40;99.90;18.60;101473.00;;;;5068380;28;20177;-68
2022/05/19 03:08:18;;;;;;;1.27;1.27;;;18.40;99.90;18.40;101491.00;;;;5067986;28;20635;-68
2022/05/19 03:10:48;;;;;;;1.20;1.20;;;18.30;99.90;18.60;101491.00;;;;5052887;28;20569;-68
2022/05/19 03:13:21;;;;;;;1.30;1.30;;;18.40;99.90;18.70;101507.00;;;;5068341;28;20311;-68
2022/05/19 03:15:47;;;;;;;1.20;1.20;;;18.40;99.90;18.80;101494.00;;;;5068928;28;20266;-69
2022/05/19 03:18:14;;;;;;;1.30;1.30;;;18.50;99.90;18.70;101529.00;;;;5053946;28;20555;-69
2022/05/19 03:20:41;;;;;;;1.30;1.27;;;18.50;99.90;18.80;101531.00;;;;5072045;28;20178;-69
2022/05/19 03:23:07;;;;;;;1.27;1.27;;;18.60;99.90;18.80;101539.00;;;;5071638;28;20293;-69
2022/05/19 03:25:33;;;;;;;1.23;1.23;;;18.50;99.90;19.20;101520.00;;;;5072030;28;20614;-69
2022/05/19 03:27:59;;;;;;;1.40;1.40;;;18.70;99.90;19.30;101567.00;;;;5072195;28;20177;-69
2022/05/19 03:30:25;;;;;;;1.50;1.50;;;18.90;99.90;18.90;101563.00;;;;5056049;28;20207;-70
2022/05/19 03:32:51;;;;;;;2.20;2.20;;;18.80;99.90;19.10;101550.00;;;;5071635;28;20214;-69
2022/05/19 03:35:17;;;;;;;3.03;2.83;;;18.80;99.90;18.70;101543.00;;;;5056328;28;20182;-67
2022/05/19 03:37:44;;;;;;;2.50;2.33;;;18.70;99.90;18.40;101513.00;;;;5071539;28;20259;-68
2022/05/19 03:40:13;;;;;;;4.63;3.87;;;18.40;99.90;18.40;101544.00;;;;5056201;28;20506;-68
2022/05/19 03:42:38;;;;;;;1.63;1.60;;;18.40;99.90;18.40;101523.00;;;;5071656;28;20192;-67
2022/05/19 03:45:05;;;;;;;2.57;2.47;;;18.30;99.90;18.50;101524.00;;;;5071399;28;20538;-68
2022/05/19 03:47:32;;;;;;;2.30;2.30;;;18.30;99.90;18.50;101564.00;;;;5071644;28;20194;-69
2022/05/19 03:49:58;;;;;;;2.30;2.30;;;18.30;99.90;18.10;101540.00;;;;5071515;28;20213;-68
2022/05/19 03:52:24;;;;;;;2.20;2.20;;;18.30;99.90;18.20;101547.00;;;;5036148;28;20267;-68
2022/05/19 03:54:50;;;;;;;2.00;2.00;;;18.20;99.90;18.40;101518.00;;;;5035881;28;20179;-68
2022/05/19 03:57:21;;;;;;;1.80;1.80;;;18.20;99.90;18.30;101536.00;;;;5035911;28;20172;-67
2022/05/19 03:59:47;;;;;;;1.90;1.90;;;18.20;99.90;18.60;101525.00;;;;5035738;28;20191;-68
2022/05/19 04:02:14;;;;;;;1.90;1.90;;;18.30;99.90;18.70;101509.00;;;;5034747;28;20279;-68
2022/05/19 04:04:40;;;;;;;1.80;1.80;;;18.30;99.90;18.50;101508.00;;;;5033903;28;20171;-68
2022/05/19 04:07:05;;;;;;;1.70;1.70;;;18.30;99.90;18.80;101506.00;;;;5034707;28;20225;-68
2022/05/19 04:09:31;;;;;;;1.77;1.77;;;18.40;99.90;18.70;101498.00;;;;5034549;28;20182;-68
2022/05/19 04:11:58;;;;;;;1.40;1.40;;;18.50;99.90;18.20;101473.00;;;;5035606;28;20203;-68
2022/05/19 04:14:23;;;;;;;1.60;1.50;;;18.40;99.90;18.10;101411.00;;;;5034362;28;20174;-68
2022/05/19 04:16:51;;;;;;;4.03;2.70;;;18.30;99.90;18.40;101448.00;;;;5035615;28;20178;-68
2022/05/19 04:19:17;;;;;;;1.47;1.47;;;18.30;99.90;18.50;101478.00;;;;5035680;28;20170;-68
2022/05/19 04:21:44;;;;;;;1.93;1.83;;;18.30;99.90;18.50;101481.00;;;;5035680;28;20187;-68
2022/05/19 04:24:11;;;;;;;1.83;1.80;;;18.30;99.90;18.90;101460.00;;;;5034150;28;20643;-69
2022/05/19 04:26:37;;;;;;;2.40;2.30;;;18.50;99.90;18.80;101442.00;;;;5017422;28;20182;-68
2022/05/19 04:29:03;;;;;;;1.60;1.60;;;18.50;99.90;18.50;101454.00;;;;5034074;28;20176;-68
2022/05/19 04:31:29;;;;;;;1.40;1.40;;;18.40;99.90;18.80;101494.00;;;;5033902;28;20670;-68
2022/05/19 04:33:54;;;;;;;1.43;1.43;;;18.50;99.90;19.10;101542.00;;;;5035140;28;20178;-69
2022/05/19 04:36:20;;;;;;;1.40;1.40;;;18.70;99.90;19.20;101551.00;;;;5034462;28;20173;-68
2022/05/19 04:38:46;;;;;;;1.40;1.40;;;18.90;99.90;19.30;101556.00;;;;5033999;28;20237;-68
2022/05/19 04:41:12;;;;;;;1.40;1.40;;;19.00;99.90;19.50;101545.00;;;;5035106;28;20182;-68
2022/05/19 04:43:38;;;;;;;1.50;1.50;;;19.10;99.90;19.60;101513.00;;;;5034980;28;20255;-68
2022/05/19 04:46:04;;;;;;;1.90;1.90;;;19.20;99.90;19.40;101533.00;;;;5033894;28;20184;-68
2022/05/19 04:48:29;;;;;;;1.17;1.17;;;19.30;99.90;19.10;101527.00;;;;5034190;28;20218;-68
2022/05/19 04:50:58;;;;;;;1.20;1.20;;;19.00;99.90;19.40;101515.00;;;;5033585;28;20172;-69
2022/05/19 04:53:25;;;;;;;1.20;1.20;;;19.10;99.90;18.70;101486.00;;;;5034721;28;20238;-68
2022/05/19 04:55:53;;;;;;;1.30;1.30;;;18.90;99.90;18.50;101512.00;;;;5033530;28;20269;-68
2022/05/19 04:58:19;;;;;;;1.30;1.30;;;18.60;99.90;19.10;101521.00;;;;5033646;28;20179;-68
2022/05/19 05:00:48;;;;;;;1.40;1.40;;;18.80;99.90;19.60;101516.00;;;;5033662;28;20190;-68
2022/05/19 05:03:14;;;;;;;1.67;1.67;;;19.10;99.90;19.20;101473.00;;;;5033456;28;20181;-68
2022/05/19 05:05:40;;;;;;;1.40;1.40;;;19.20;99.90;18.60;101490.00;;;;5033614;28;20296;-68
2022/05/19 05:08:06;;;;;;;1.40;1.40;;;18.80;99.90;18.70;101512.00;;;;5034495;28;20218;-68
2022/05/19 05:10:32;;;;;;;1.77;1.77;;;18.80;99.90;19.10;101506.00;;;;5034817;28;20183;-68
2022/05/19 05:13:09;;;;;;;1.70;1.70;;;18.90;99.90;19.60;101507.00;;;;5033332;28;20210;-68
2022/05/19 05:15:35;;;;;;;1.50;1.50;;;19.00;99.90;19.20;101505.00;;;;5033317;28;20208;-68
2022/05/19 05:18:01;;;;;;;1.70;1.70;;;19.00;99.90;19.60;101508.00;;;;5032966;28;20171;-68
2022/05/19 05:20:27;;;;;;;1.60;1.60;;;19.10;99.90;19.40;101504.00;;;;5033213;28;20186;-68
2022/05/19 05:22:53;;;;;;;1.60;1.60;;;19.20;99.90;19.30;101500.00;;;;5016406;28;20191;-68
2022/05/19 05:25:19;;;;;;;1.60;1.60;;;19.10;99.90;19.30;101493.00;;;;5034130;28;20191;-68
2022/05/19 05:27:45;;;;;;;1.70;1.70;;;19.10;99.90;19.30;101454.00;;;;5033042;28;20238;-68
2022/05/19 05:30:13;;;;;;;1.70;1.70;;;19.10;99.90;19.80;101489.00;;;;5034391;28;20192;-68
2022/05/19 05:32:39;;;;;;;1.70;1.70;;;19.30;99.90;19.60;101482.00;;;;5032416;28;20297;-68
2022/05/19 05:35:08;;;;;;;1.60;1.60;;;19.30;99.90;19.70;101478.00;;;;5032995;28;20271;-68
2022/05/19 05:37:34;;;;;;;1.60;1.60;;;19.50;99.90;20.00;101461.00;;;;5033906;28;20650;-68
2022/05/19 05:40:01;;;;;;;1.60;1.60;;;19.70;99.90;20.70;101483.00;;;;5032689;28;20209;-68
2022/05/19 05:42:27;;;;;;;1.60;1.60;;;20.00;99.90;21.80;101469.00;;;;5032338;28;20186;-68
2022/05/19 05:44:53;;;;;;;1.70;1.70;;;20.90;99.90;22.50;101472.00;;;;5032895;28;20190;-68
2022/05/19 05:47:19;;;;;;;1.60;1.60;;;21.70;99.90;23.70;101467.00;;;;5033592;28;20582;-68
2022/05/19 05:49:44;;;;;;;1.33;1.33;;;22.70;99.90;24.40;101454.00;;;;5032705;28;20203;-69
2022/05/19 05:52:10;;;;;;;1.10;1.10;;;23.60;99.90;24.10;101435.00;;;;5032244;28;20287;-68
2022/05/19 05:54:36;;;;;;;0.90;0.90;;;23.80;99.90;25.20;101406.00;;;;5032562;28;20236;-68
2022/05/19 05:57:03;;;;;;;0.80;0.80;;;24.40;99.90;25.50;101440.00;;;;5033800;28;20289;-68
2022/05/19 05:59:28;;;;;;;0.80;0.80;;;25.00;99.90;25.90;101423.00;;;;5033678;28;20198;-68
2022/05/19 06:01:54;;;;;;;0.70;0.70;;;25.10;99.90;27.40;101419.00;;;;5033328;28;20553;-68
2022/05/19 06:04:23;;;;;;;1.10;1.10;;;26.20;99.90;27.90;101400.00;;;;5033668;28;20198;-68
2022/05/19 06:06:49;;;;;;;0.88;0.88;;;26.90;99.90;28.00;101429.00;;;;5033389;28;20536;-68
2022/05/19 06:09:16;;;;;;;0.40;0.40;;;27.40;99.90;27.60;101425.00;;;;5033357;28;20226;-68
2022/05/19 06:11:42;;;;;;;0.63;0.63;;;27.00;99.90;26.30;101413.00;;;;5033666;28;20198;-67
2022/05/19 06:14:09;;;;;;;1.20;1.00;;;26.30;99.90;26.00;101416.00;;;;5033272;28;20598;-67
2022/05/19 06:16:35;;;;;;;0.95;0.85;;;25.90;99.90;26.10;101433.00;;;;5032056;28;20240;-67
2022/05/19 06:19:01;;;;;;;0.30;0.30;;;25.70;99.90;25.70;101383.00;;;;5033227;28;20182;-67
2022/05/19 06:21:27;;;;;;;0.60;0.60;;;25.50;99.90;25.30;101412.00;;;;5033393;28;20638;-67
2022/05/19 06:23:53;;;;;;;0.20;0.20;;;25.20;99.90;25.70;101413.00;;;;5033212;28;20194;-67
2022/05/19 06:26:18;;;;;;;1.10;0.50;;;25.50;99.90;24.60;101396.00;;;;5033204;28;20194;-68
2022/05/19 06:28:44;;;;;;;0.57;0.57;;;25.00;99.90;24.50;101401.00;;;;5033231;28;20195;-68
2022/05/19 06:31:10;;;;;;;0.60;0.60;;;24.70;99.90;24.10;101400.00;;;;5033171;28;20201;-68
2022/05/19 06:33:36;;;;;;;0.90;0.90;;;24.30;99.90;24.80;101411.00;;;;5033107;28;20178;-68
2022/05/19 06:36:04;;;;;;;0.40;0.40;;;24.50;99.90;25.10;101403.00;;;;5033209;28;20195;-69
2022/05/19 06:38:31;;;;;;;0.20;0.20;;;24.80;99.90;24.30;101399.00;;;;5031840;28;20186;-69
2022/05/19 06:43:43;;;;;;;0.47;0.47;;;24.60;99.90;24.90;101409.00;;;;5033006;28;20553;-69
2022/05/19 06:46:09;;;;;;;0.40;0.40;;;24.80;99.90;24.90;101400.00;;;;5031798;28;20258;-68
2022/05/19 06:48:35;;;;;;;0.57;0.57;;;24.80;99.90;24.20;101379.00;;;;5015140;28;20187;-69
2022/05/19 06:51:01;;;;;;;0.20;0.20;;;24.70;99.90;25.70;101406.00;;;;5032069;28;20197;-69
2022/05/19 06:53:28;;;;;;;0.63;0.63;;;25.10;99.90;26.00;101405.00;;;;5034210;28;20197;-68
2022/05/19 06:55:54;;;;;;;0.40;0.40;;;25.60;99.90;26.00;101404.00;;;;5037017;28;20195;-69
2022/05/19 06:58:19;;;;;;;0.50;0.50;;;25.70;99.90;25.90;101428.00;;;;5036858;28;20356;-69
2022/05/19 07:00:45;;;;;;;0.60;0.32;;;25.60;99.90;26.10;101432.00;;;;5035694;28;20187;-69
2022/05/19 07:03:11;;;;;;;0.20;0.20;;;26.00;99.90;25.70;101435.00;;;;5036971;28;20642;-69
2022/05/19 07:05:38;;;;;;;0.20;0.20;;;25.80;99.90;25.20;101430.00;;;;5037024;28;20178;-69
2022/05/19 07:08:06;;;;;;;1.98;1.20;;;25.50;99.90;25.40;101435.00;;;;5035516;28;20548;-69
2022/05/19 07:10:32;;;;;;;0.90;0.90;;;25.40;99.90;25.10;101430.00;;;;5036720;28;20205;-69
2022/05/19 07:12:59;;;;;;;0.60;0.60;;;25.20;99.90;25.10;101439.00;;;;5036885;28;20272;-69
2022/05/19 07:15:29;;;;;;;0.30;0.30;;;25.10;99.90;24.20;101424.00;;;;5036694;28;20584;-69
2022/05/19 07:17:56;;;;;;;0.90;0.90;;;24.70;99.90;24.10;101449.00;;;;5035789;28;20202;-68
2022/05/19 07:23:08;;;;;;;0.20;0.20;;;24.20;99.90;23.40;101442.00;;;;5035574;28;20665;-69
2022/05/19 07:25:34;;;;;;;0.68;0.68;;;23.80;99.90;22.70;101398.00;;;;5036489;28;20191;-68
2022/05/19 07:28:00;;;;;;;1.10;0.95;;;23.30;99.90;23.20;101432.00;;;;5036211;28;20592;-67
2022/05/19 07:30:26;;;;;;;0.73;0.73;;;23.20;99.90;23.20;101437.00;;;;5035418;28;20223;-67
2022/05/19 07:32:54;;;;;;;1.05;1.02;;;23.20;99.90;23.20;101426.00;;;;5035182;28;20696;-68
2022/05/19 07:35:21;;;;;;;0.55;0.55;;;23.30;99.90;23.30;101433.00;;;;5036517;28;20213;-67
2022/05/19 07:37:47;;;;;;;0.68;0.68;;;23.40;99.90;23.30;101405.00;;;;5035137;28;20229;-68
2022/05/19 07:40:16;;;;;;;1.88;1.77;;;23.60;99.90;24.00;101420.00;;;;5035142;28;20214;-68
2022/05/19 07:42:43;;;;;;;1.25;0.88;;;23.90;99.90;24.40;101423.00;;;;5034888;28;20195;-67
2022/05/19 07:45:10;;;;;;;0.93;0.93;;;24.50;99.90;25.40;101422.00;;;;5035121;28;20195;-68
2022/05/19 07:47:37;;;;;;;0.65;0.65;;;25.10;99.90;25.70;101433.00;;;;5035069;28;20219;-68
2022/05/19 07:50:05;;;;;;;2.03;0.88;;;25.50;99.90;25.40;101433.00;;;;5034957;28;20220;-68
2022/05/19 07:52:31;;;;;;;0.65;0.65;;;25.40;99.90;25.30;101427.00;;;;5035025;28;20198;-69
2022/05/19 07:54:57;;;;;;;0.50;0.50;;;25.20;99.90;25.00;101387.00;;;;5034648;28;20286;-68
2022/05/19 07:57:23;;;;;;;0.85;0.85;;;25.20;99.90;24.30;101374.00;;;;5034657;28;20268;-68
2022/05/19 07:59:50;;;;;;;1.55;1.55;;;24.70;99.90;24.10;101430.00;;;;5036104;28;20182;-69
2022/05/19 08:02:15;;;;;;;1.30;1.30;;;24.40;99.90;25.00;101437.00;;;;5035870;28;20715;-68
2022/05/19 08:04:41;;;;;;;0.35;0.35;;;24.80;99.90;24.70;101442.00;;;;5034139;28;20190;-68
2022/05/19 08:07:08;;;;;;;1.95;1.85;;;24.80;99.90;23.80;101435.00;;;;5036012;28;20202;-68
2022/05/19 08:15:35;;;;;;;2.08;1.83;;;23.80;99.90;23.10;101421.00;;;;5035650;28;20261;-68
2022/05/19 08:18:11;;;;;;;1.25;1.15;;;23.40;99.90;22.70;101437.00;;;;5035574;28;20179;-68
2022/05/19 08:21:04;;;;;;;0.68;0.68;;;23.10;99.90;23.80;101437.00;;;;5034346;28;20194;-68
2022/05/19 08:23:41;;;;;;;2.20;2.05;;;23.50;99.90;23.50;101439.00;;;;5043756;28;20693;-68
2022/05/19 08:26:08;;;;;;;0.47;0.47;;;23.60;99.90;24.10;101449.00;;;;5035269;28;20186;-68
2022/05/19 08:28:36;;;;;;;2.05;1.95;;;24.00;99.90;24.70;101388.00;;;;5034126;28;20195;-68
2022/05/19 08:31:21;;;;;;;1.17;1.05;;;24.60;99.90;25.40;101414.00;;;;5035163;28;20191;-68
2022/05/19 08:33:54;;;;;;;3.20;2.78;;;25.20;99.90;26.00;101436.00;;;;5034295;28;20272;-69
2022/05/19 08:36:21;;;;;;;0.40;0.40;;;25.70;99.90;25.40;101414.00;;;;5034341;28;20274;-69
2022/05/19 08:38:47;;;;;;;0.75;0.75;;;25.70;99.90;26.10;101409.00;;;;5035219;28;20201;-69
2022/05/19 08:41:56;;;;;;;0.85;0.68;;;26.00;99.90;26.50;101413.00;;;;5034816;28;20191;-69
2022/05/19 08:44:32;;;;;;;0.43;0.43;;;26.40;99.90;26.90;101425.00;;;;5034052;28;20195;-68
2022/05/19 08:47:02;;;;;;;1.85;1.48;;;26.80;99.90;26.50;101430.00;;;;5017175;28;20682;-69
2022/05/19 08:49:58;;;;;;;0.85;0.47;;;26.90;99.90;27.40;101440.00;;;;5033858;28;20661;-68
2022/05/19 08:52:31;;;;;;;1.10;1.10;;;27.20;99.90;27.10;101455.00;;;;5033666;28;20279;-69
2022/05/19 08:54:59;;;;;;;0.77;0.77;;;27.40;99.90;28.80;101478.00;;;;5033355;28;20195;-69
2022/05/19 08:57:31;;;;;;;1.40;1.30;;;27.90;99.90;28.90;101510.00;;;;5034897;28;20277;-69
2022/05/19 09:00:24;;;;;;;0.17;0.17;;;28.80;99.90;28.80;101522.00;;;;5017010;28;20673;-69
2022/05/19 09:02:56;;;;;;;0.40;0.40;;;28.60;99.90;27.50;101494.00;;;;5033256;28;20214;-68
2022/05/19 09:06:01;;;;;;;0.47;0.45;;;27.70;99.90;26.70;101483.00;;;;5034699;28;20713;-69
2022/05/19 09:09:26;;;;;;;6.28;5.88;;;27.20;99.90;27.60;101484.00;;;;5034846;28;20277;-69
2022/05/19 09:12:04;;;;;;;1.25;1.15;;;26.90;99.90;27.40;101500.00;;;;5028715;28;20686;-69
2022/05/19 09:14:31;;;;;;;0.28;0.28;;;27.30;99.90;25.80;101446.00;;;;5034770;28;20194;-69
2022/05/19 09:17:05;;;;;;;0.10;0.10;;;26.50;99.90;26.90;101484.00;;;;5032528;28;20561;-69
2022/05/19 09:19:48;;;;;;;0.30;0.30;;;26.50;99.90;24.90;101464.00;;;;5034938;28;20235;-68
2022/05/19 09:22:19;;;;;;;0.80;0.80;;;25.70;99.90;25.10;101463.00;;;;5032964;28;20558;-69
2022/05/19 09:24:49;;;;;;;0.90;0.90;;;25.20;99.90;24.50;101427.00;;;;5032869;28;20670;-69
2022/05/19 09:27:18;;;;;;;0.20;0.20;;;24.90;99.90;23.90;101454.00;;;;5033047;28;20221;-68
2022/05/19 09:29:51;;;;;;;0.28;0.28;;;24.40;99.90;25.40;101460.00;;;;5033279;28;20197;-68
2022/05/19 09:32:34;;;;;;;0.10;0.10;;;25.20;99.90;26.60;101460.00;;;;5034362;28;20221;-68
2022/05/19 09:35:25;;;;;;;0.20;0.20;;;25.90;99.90;25.50;101445.00;;;;5048806;28;20201;-68
2022/05/19 09:38:33;;;;;;;1.10;1.10;;;25.70;99.90;26.00;101443.00;;;;5032881;28;20191;-68
2022/05/19 09:41:08;;;;;;;0.20;0.20;;;25.60;99.90;27.10;101458.00;;;;5033573;28;20194;-69
2022/05/19 09:43:37;;;;;;;0.20;0.20;;;26.50;99.90;27.60;101476.00;;;;5032531;28;20673;-69
2022/05/19 09:46:14;;;;;;;0.13;0.13;;;27.20;99.90;29.00;101479.00;;;;5033853;28;20199;-68
2022/05/19 09:49:05;;;;;;;0.10;0.10;;;27.80;99.90;30.80;101501.00;;;;5033096;28;20574;-69
2022/05/19 09:51:43;;;;;;;0.35;0.35;;;29.40;99.90;29.70;101494.00;;;;5016218;28;20209;-68
2022/05/19 09:54:12;;;;;;;0.20;0.20;;;29.40;99.90;30.20;101521.00;;;;5032486;28;20194;-68
2022/05/19 09:56:53;;;;;;;6.22;2.08;;;29.50;99.90;28.20;101533.00;;;;5032733;28;20186;-68
2022/05/19 09:59:42;;;;;;;2.45;1.08;;;28.60;99.90;25.90;101490.00;;;;5033869;28;20187;-67
2022/05/19 10:02:35;;;;;;;0.20;0.20;;;26.70;99.90;25.50;101441.00;;;;5032576;28;20221;-68
2022/05/19 10:05:17;;;;;;;0.30;0.30;;;25.70;99.90;26.10;101485.00;;;;5032359;28;20693;-68
2022/05/19 10:07:49;;;;;;;0.35;0.35;;;25.80;99.90;26.30;101492.00;;;;5032172;28;20658;-68
2022/05/19 10:10:28;;;;;;;0.47;0.47;;;25.90;99.90;26.10;101465.00;;;;5032463;28;20175;-68
2022/05/19 10:13:02;;;;;;;0.20;0.20;;;25.80;99.90;26.00;101500.00;;;;5016112;28;20611;-68
2022/05/19 10:15:53;;;;;;;0.40;0.40;;;25.80;99.90;25.80;101483.00;;;;5033697;28;20190;-68
2022/05/19 10:18:30;;;;;;;0.40;0.40;;;25.60;99.90;25.20;101498.00;;;;5032446;28;20187;-68
2022/05/19 10:33:46;;;;;;;5.50;3.77;;;20.80;99.90;19.60;101664.00;;;;5109862;27;20514;-69
2022/05/19 10:36:33;;;;;;;1.60;1.53;;;20.10;99.90;19.40;101648.00;;;;5089371;28;20221;-69
2022/05/19 10:39:33;;;;;;;1.37;1.37;;;19.60;99.90;19.30;101698.00;;;;5089362;28;20203;-69
2022/05/19 10:42:20;;;;;;;2.27;2.17;;;19.40;99.90;19.30;101745.00;;;;5071097;28;20217;-69
2022/05/19 10:45:28;;;;;;;5.20;3.23;;;19.30;99.90;18.60;101800.00;;;;5071524;28;20584;-68
2022/05/19 10:48:37;;;;;;;1.53;1.53;;;18.90;99.90;18.80;101841.00;;;;5060753;28;20205;-68
2022/05/19 10:51:12;;;;;;;2.80;2.70;;;18.90;99.90;18.80;101808.00;;;;5088692;28;20209;-68
2022/05/19 10:53:54;;;;;;;1.00;1.00;;;18.90;99.90;18.90;101788.00;;;;5070936;28;20627;-67
2022/05/19 10:56:43;;;;;;;1.20;1.20;;;18.90;99.90;19.10;101755.00;;;;5089180;28;20283;-67
2022/05/19 10:59:45;;;;;;;3.53;3.13;;;19.00;99.90;19.20;101743.00;;;;5088868;28;20232;-67
2022/05/19 11:02:35;;;;;;;1.87;1.80;;;19.10;99.90;19.20;101751.00;;;;5088789;28;20200;-67
2022/05/19 11:05:27;;;;;;;3.93;3.63;;;19.10;99.90;19.20;101751.00;;;;5070712;28;20189;-67
2022/05/19 11:08:17;;;;;;;1.20;1.20;;;19.10;99.90;19.10;101754.00;;;;5088914;28;20186;-67
2022/05/19 11:11:08;;;;;;;2.20;2.10;;;19.00;99.90;19.00;101759.00;;;;5088865;28;20191;-67
2022/05/19 11:13:50;;;;;;;3.83;3.63;;;19.00;99.90;18.90;101703.00;;;;5088939;28;20202;-67
2022/05/19 11:16:57;;;;;;;5.43;5.00;;;18.90;99.90;18.70;101582.00;;;;5089187;28;20194;-67
2022/05/19 11:19:32;;;;;;;1.87;1.87;;;18.80;99.90;18.70;101613.00;;;;5066137;28;20660;-67
2022/05/19 11:22:05;;;;;;;4.17;3.33;;;18.70;99.90;18.80;101625.00;;;;5088631;28;20184;-67
2022/05/19 11:26:23;;;;;;;1.53;1.53;;;18.70;99.90;19.00;101730.00;;;;5070691;28;20196;-67
2022/05/19 11:27:31;;;;;;;1.30;1.30;;;18.80;99.90;18.80;101730.00;;;;5073587;28;20197;-67
2022/05/19 11:30:07;;;;;;;1.40;1.40;;;18.80;99.90;19.20;101686.00;;;;5088916;28;20184;-67
2022/05/19 11:32:37;;;;;;;1.30;1.30;;;18.90;99.90;19.30;101697.00;;;;5088447;28;20214;-67
2022/05/19 11:35:21;;;;;;;1.70;1.70;;;19.00;99.90;19.30;101687.00;;;;5070742;28;20220;-67